createdAt,value
2023-02-12T00:01:11.055Z,81.70
2023-02-12T00:03:38.262Z,81.30
2023-02-12T00:06:05.721Z,81.80
2023-02-12T00:08:32.530Z,81.40
2023-02-12T00:10:59.348Z,81.40
2023-02-12T00:13:26.134Z,82.00
2023-02-12T00:15:53.084Z,81.50
2023-02-12T00:18:20.046Z,82.10
2023-02-12T00:20:46.796Z,81.50
2023-02-12T00:23:13.718Z,81.60
2023-02-12T00:25:44.273Z,81.70
2023-02-12T00:28:11.139Z,82.30
2023-02-12T00:30:38.050Z,81.70
2023-02-12T00:33:04.854Z,82.30
2023-02-12T00:35:31.655Z,81.80
2023-02-12T00:37:58.730Z,81.70
2023-02-12T00:40:25.592Z,81.70
2023-02-12T00:42:52.424Z,81.80
2023-02-12T00:45:19.221Z,81.80
2023-02-12T00:47:45.984Z,81.90
2023-02-12T00:50:15.486Z,81.90
2023-02-12T00:52:42.295Z,82.00
2023-02-12T00:55:09.377Z,82.10
2023-02-12T00:57:36.287Z,82.20
2023-02-12T01:00:03.877Z,82.20
2023-02-12T01:02:30.625Z,82.20
2023-02-12T01:04:58.496Z,82.20
2023-02-12T01:07:25.515Z,82.20
2023-02-12T01:09:52.356Z,82.20
2023-02-12T01:12:19.190Z,82.10
2023-02-12T01:14:46.796Z,82.10
2023-02-12T01:17:13.624Z,82.10
2023-02-12T01:19:42.664Z,82.10
2023-02-12T01:22:09.460Z,82.10
2023-02-12T01:24:36.259Z,82.20
2023-02-12T01:27:03.142Z,82.20
2023-02-12T01:29:29.989Z,82.20
2023-02-12T01:31:56.831Z,82.20
2023-02-12T01:34:23.861Z,82.30
2023-02-12T01:36:50.732Z,82.30
2023-02-12T01:39:17.514Z,82.30
2023-02-12T01:41:44.876Z,82.40
2023-02-12T01:44:13.576Z,82.40
2023-02-12T01:46:40.560Z,82.40
2023-02-12T01:49:34.991Z,82.50
2023-02-12T01:52:24.959Z,82.50
2023-02-12T01:54:51.783Z,82.50
2023-02-12T01:57:18.646Z,82.40
2023-02-12T01:59:45.882Z,82.50
2023-02-12T02:02:12.724Z,82.50
2023-02-12T02:04:48.360Z,83.10
2023-02-12T02:07:15.113Z,83.10
2023-02-12T02:09:41.955Z,82.50
2023-02-12T02:12:27.244Z,82.40
2023-02-12T02:14:59.121Z,83.00
2023-02-12T02:17:38.751Z,82.50
2023-02-12T02:20:39.491Z,82.60
2023-02-12T02:23:10.973Z,82.60
2023-02-12T02:26:11.855Z,82.60
2023-02-12T02:29:06.755Z,82.70
2023-02-12T02:31:43.195Z,82.70
2023-02-12T02:34:37.889Z,82.70
2023-02-12T02:37:23.935Z,82.80
2023-02-12T02:40:09.550Z,82.80
2023-02-12T02:42:50.520Z,82.80
2023-02-12T02:45:52.297Z,83.30
2023-02-12T02:48:27.267Z,82.80
2023-02-12T02:50:57.525Z,82.80
2023-02-12T02:53:30.573Z,82.80
2023-02-12T02:55:58.778Z,83.30
2023-02-12T02:58:35.986Z,83.30
2023-02-12T03:01:18.034Z,83.40
2023-02-12T03:03:51.215Z,82.90
2023-02-12T03:06:40.903Z,83.00
2023-02-12T03:09:21.764Z,82.90
2023-02-12T03:11:50.847Z,83.00
2023-02-12T03:14:22.514Z,83.00
2023-02-12T03:17:20.864Z,83.00
2023-02-12T03:19:51.359Z,83.70
2023-02-12T03:22:23.258Z,83.20
2023-02-12T03:25:05.590Z,83.20
2023-02-12T03:27:33.002Z,83.30
2023-02-12T03:30:00.245Z,83.20
2023-02-12T03:33:13.552Z,83.30
2023-02-12T03:35:57.038Z,83.40
2023-02-12T03:38:47.753Z,83.30
2023-02-12T03:41:15.578Z,83.30
2023-02-12T03:43:50.326Z,83.30
2023-02-12T03:46:32.055Z,83.40
2023-02-12T03:49:15.710Z,83.40
2023-02-12T03:51:43.454Z,83.50
2023-02-12T03:54:10.974Z,83.50
2023-02-12T03:56:43.302Z,83.50
2023-02-12T03:59:10.141Z,83.60
2023-02-12T04:01:37.126Z,83.70
2023-02-12T04:04:05.562Z,83.70
2023-02-12T04:06:32.339Z,83.80
2023-02-12T04:09:01.769Z,83.80
2023-02-12T04:11:49.051Z,84.40
2023-02-12T04:14:27.527Z,84.00
2023-02-12T04:17:10.287Z,84.00
2023-02-12T04:19:56.265Z,84.00
2023-02-12T04:22:38.158Z,84.00
2023-02-12T04:25:23.790Z,84.10
2023-02-12T04:28:07.322Z,84.20
2023-02-12T04:30:37.461Z,84.20
2023-02-12T04:33:05.257Z,84.20
2023-02-12T04:35:43.530Z,84.10
2023-02-12T04:38:13.572Z,84.20
2023-02-12T04:40:40.547Z,84.10
2023-02-12T04:43:07.406Z,84.20
2023-02-12T04:45:34.939Z,84.30
2023-02-12T04:48:02.268Z,84.30
2023-02-12T04:50:38.956Z,84.40
2023-02-12T04:53:05.860Z,84.40
2023-02-12T04:55:32.621Z,84.50
2023-02-12T04:57:59.372Z,84.50
2023-02-12T05:00:26.259Z,84.50
2023-02-12T05:02:52.982Z,84.50
2023-02-12T05:05:19.814Z,84.50
2023-02-12T05:07:46.689Z,84.60
2023-02-12T05:10:13.624Z,84.60
2023-02-12T05:12:40.583Z,84.70
2023-02-12T05:15:07.699Z,84.80
2023-02-12T05:17:34.537Z,84.80
2023-02-12T05:20:01.342Z,84.90
2023-02-12T05:22:28.204Z,84.90
2023-02-12T05:24:54.965Z,84.90
2023-02-12T05:27:21.780Z,84.80
2023-02-12T05:29:48.562Z,85.40
2023-02-12T05:32:15.391Z,84.90
2023-02-12T05:34:42.253Z,85.40
2023-02-12T05:37:09.026Z,84.90
2023-02-12T05:39:35.745Z,84.90
2023-02-12T05:42:02.549Z,85.10
2023-02-12T05:44:29.432Z,85.10
2023-02-12T05:46:56.224Z,85.10
2023-02-12T05:49:22.986Z,85.60
2023-02-12T05:51:50.016Z,85.60
2023-02-12T05:54:16.757Z,85.20
2023-02-12T05:56:45.315Z,85.20
2023-02-12T05:59:22.280Z,85.20
2023-02-12T06:01:50.243Z,85.30
2023-02-12T06:04:23.677Z,85.30
2023-02-12T06:06:50.962Z,85.30
2023-02-12T06:09:17.692Z,85.30
2023-02-12T06:11:44.660Z,85.20
2023-02-12T06:14:13.751Z,85.20
2023-02-12T06:16:40.651Z,85.30
2023-02-12T06:19:07.669Z,85.40
2023-02-12T06:21:34.585Z,85.40
2023-02-12T06:24:01.419Z,85.40
2023-02-12T06:26:28.586Z,85.50
2023-02-12T06:28:55.375Z,85.60
2023-02-12T06:31:30.559Z,85.60
2023-02-12T06:33:59.117Z,85.60
2023-02-12T06:36:25.865Z,85.70
2023-02-12T06:38:52.747Z,85.70
2023-02-12T06:41:20.177Z,85.80
2023-02-12T06:43:47.010Z,85.80
2023-02-12T06:46:13.897Z,85.80
2023-02-12T06:48:40.984Z,85.90
2023-02-12T06:51:09.702Z,86.00
2023-02-12T06:53:36.562Z,86.10
2023-02-12T06:56:04.785Z,86.10
2023-02-12T06:58:31.591Z,86.10
2023-02-12T07:01:07.695Z,86.10
2023-02-12T07:03:34.638Z,86.10
2023-02-12T07:06:03.415Z,86.10
2023-02-12T07:08:30.156Z,86.10
2023-02-12T07:10:56.911Z,86.10
2023-02-12T07:13:23.669Z,86.70
2023-02-12T07:15:50.531Z,86.20
2023-02-12T07:18:17.388Z,86.30
2023-02-12T07:20:44.128Z,86.30
2023-02-12T07:23:13.919Z,86.30
2023-02-12T07:25:40.738Z,86.30
2023-02-12T07:28:07.486Z,86.30
2023-02-12T07:30:34.401Z,86.20
2023-02-12T07:33:01.228Z,86.30
2023-02-12T07:35:27.979Z,86.30
2023-02-12T07:37:54.817Z,86.30
2023-02-12T07:40:21.645Z,86.30
2023-02-12T07:42:53.528Z,86.20
2023-02-12T07:45:20.293Z,86.80
2023-02-12T07:47:47.034Z,86.30
2023-02-12T07:50:13.969Z,86.40
2023-02-12T07:52:40.733Z,86.60
2023-02-12T07:55:08.022Z,86.70
2023-02-12T07:57:35.438Z,87.00
2023-02-12T08:00:02.475Z,87.10
2023-02-12T08:02:39.044Z,87.20
2023-02-12T08:05:06.353Z,87.80
2023-02-12T08:07:33.118Z,87.40
2023-02-12T08:09:59.914Z,87.60
2023-02-12T08:12:26.739Z,87.70
2023-02-12T08:14:54.386Z,87.70
2023-02-12T08:17:21.191Z,87.80
2023-02-12T08:19:47.943Z,87.90
2023-02-12T08:22:14.745Z,88.00
2023-02-12T08:24:42.605Z,88.10
2023-02-12T08:27:09.393Z,88.10
2023-02-12T08:29:36.420Z,88.20
2023-02-12T08:32:03.621Z,88.20
2023-02-12T08:34:32.291Z,88.30
2023-02-12T08:36:59.145Z,88.20
2023-02-12T08:39:27.589Z,88.20
2023-02-12T08:41:55.585Z,88.30
2023-02-12T08:44:22.440Z,88.40
2023-02-12T08:46:50.591Z,88.40
2023-02-12T08:49:19.260Z,88.50
2023-02-12T08:51:48.757Z,88.50
2023-02-12T08:54:23.951Z,88.60
2023-02-12T08:56:51.199Z,88.60
2023-02-12T08:59:18.418Z,89.10
2023-02-12T09:01:45.236Z,88.70
2023-02-12T09:04:21.544Z,88.70
2023-02-12T09:06:48.485Z,89.30
2023-02-12T09:09:15.531Z,88.80
2023-02-12T09:11:42.350Z,88.90
2023-02-12T09:14:11.659Z,89.00
2023-02-12T09:16:40.246Z,89.60
2023-02-12T09:19:07.743Z,89.10
2023-02-12T09:21:34.693Z,89.10
2023-02-12T09:24:02.628Z,89.10
2023-02-12T09:26:29.567Z,89.20
2023-02-12T09:28:56.387Z,89.20
2023-02-12T09:31:26.574Z,89.10
2023-02-12T09:33:55.334Z,89.10
2023-02-12T09:36:22.383Z,89.10
2023-02-12T09:38:49.633Z,89.00
2023-02-12T09:41:43.194Z,89.00
2023-02-12T09:44:31.716Z,89.00
2023-02-12T09:47:15.818Z,89.00
2023-02-12T09:50:02.023Z,88.90
2023-02-12T09:52:29.203Z,88.90
2023-02-12T09:54:56.208Z,88.80
2023-02-12T09:57:31.394Z,88.80
2023-02-12T10:00:16.827Z,88.80
2023-02-12T10:02:43.732Z,88.70
2023-02-12T10:05:24.819Z,88.60
2023-02-12T10:07:57.600Z,88.60
2023-02-12T10:10:48.479Z,88.50
2023-02-12T10:13:42.814Z,88.50
2023-02-12T10:16:30.947Z,88.50
2023-02-12T10:19:00.790Z,88.60
2023-02-12T10:21:33.968Z,88.70
2023-02-12T10:24:35.114Z,88.80
2023-02-12T10:27:12.049Z,88.80
2023-02-12T10:29:39.529Z,88.80
2023-02-12T10:32:11.594Z,88.80
2023-02-12T10:34:38.389Z,88.80
2023-02-12T10:37:28.499Z,88.90
2023-02-12T10:39:58.261Z,89.00
2023-02-12T10:42:34.773Z,88.80
2023-02-12T10:45:01.598Z,88.70
2023-02-12T10:47:28.392Z,88.60
2023-02-12T10:49:59.748Z,88.40
2023-02-12T10:52:29.492Z,88.40
2023-02-12T10:54:56.459Z,88.20
2023-02-12T10:57:25.053Z,88.20
2023-02-12T10:59:54.016Z,88.10
2023-02-12T11:02:29.509Z,88.00
2023-02-12T11:04:56.886Z,88.00
2023-02-12T11:07:24.016Z,87.90
2023-02-12T11:09:51.891Z,87.80
2023-02-12T11:12:47.943Z,87.70
2023-02-12T11:15:16.686Z,87.50
2023-02-12T11:17:45.584Z,87.30
2023-02-12T11:20:18.568Z,87.20
2023-02-12T11:22:55.665Z,87.10
2023-02-12T11:25:23.114Z,87.00
2023-02-12T11:28:05.292Z,86.80
2023-02-12T11:30:32.467Z,86.70
2023-02-12T11:33:23.492Z,86.70
2023-02-12T11:35:58.300Z,87.10
2023-02-12T11:38:28.050Z,86.60
2023-02-12T11:40:58.475Z,86.70
2023-02-12T11:43:25.505Z,86.70
2023-02-12T11:45:53.041Z,87.20
2023-02-12T11:48:34.605Z,86.60
2023-02-12T11:51:03.830Z,86.60
2023-02-12T11:53:32.781Z,86.50
2023-02-12T11:56:10.638Z,87.10
2023-02-12T11:58:37.548Z,86.30
2023-02-12T12:01:37.110Z,86.30
2023-02-12T12:04:06.679Z,86.30
2023-02-12T12:06:38.745Z,86.10
2023-02-12T12:09:13.032Z,86.10
2023-02-12T12:12:10.325Z,86.00
2023-02-12T12:15:02.767Z,85.90
2023-02-12T12:18:00.342Z,85.90
2023-02-12T12:20:29.702Z,85.80
2023-02-12T12:23:08.553Z,85.90
2023-02-12T12:25:44.173Z,86.00
2023-02-12T12:28:28.591Z,86.50
2023-02-12T12:31:10.761Z,86.10
2023-02-12T12:33:51.722Z,86.30
2023-02-12T12:36:18.580Z,86.40
2023-02-12T12:39:18.780Z,86.50
2023-02-12T12:42:14.600Z,86.50
2023-02-12T12:45:12.349Z,86.60
2023-02-12T12:48:03.121Z,86.40
2023-02-12T12:51:01.707Z,86.40
2023-02-12T12:53:53.440Z,86.40
2023-02-12T12:56:26.032Z,86.30
2023-02-12T12:59:16.416Z,86.30
2023-02-12T13:02:22.055Z,86.10
2023-02-12T13:05:06.689Z,86.30
2023-02-12T13:07:54.626Z,86.40
2023-02-12T13:10:45.446Z,86.40
2023-02-12T13:13:33.592Z,86.30
2023-02-12T13:16:16.072Z,86.90
2023-02-12T13:18:52.039Z,86.30
2023-02-12T13:21:54.248Z,86.20
2023-02-12T13:24:24.569Z,86.10
2023-02-12T13:27:06.023Z,86.10
2023-02-12T13:29:39.166Z,86.00
2023-02-12T13:32:13.370Z,86.00
2023-02-12T13:34:40.235Z,85.90
2023-02-12T13:37:07.209Z,85.90
2023-02-12T13:39:39.485Z,86.00
2023-02-12T13:42:09.994Z,86.00
2023-02-12T13:44:40.256Z,86.10
2023-02-12T13:47:25.436Z,86.10
2023-02-12T13:49:54.303Z,86.10
2023-02-12T13:52:33.277Z,86.10
2023-02-12T13:55:21.423Z,86.20
2023-02-12T13:58:40.771Z,86.30
2023-02-12T14:01:16.403Z,86.40
2023-02-12T14:03:43.280Z,86.40
2023-02-12T14:06:15.475Z,86.40
2023-02-12T14:09:07.789Z,86.40
2023-02-12T14:11:34.512Z,86.50
2023-02-12T14:14:03.103Z,86.40
2023-02-12T14:16:29.891Z,86.50
2023-02-12T14:19:34.244Z,86.50
2023-02-12T14:22:01.402Z,86.60
2023-02-12T14:24:37.434Z,86.50
2023-02-12T14:27:26.924Z,86.40
2023-02-12T14:30:04.060Z,86.40
2023-02-12T14:32:53.731Z,86.20
2023-02-12T14:35:26.296Z,86.20
2023-02-12T14:37:54.317Z,86.20
2023-02-12T14:40:31.807Z,86.20
2023-02-12T14:42:58.593Z,86.10
2023-02-12T14:45:35.877Z,86.10
2023-02-12T14:48:04.122Z,86.40
2023-02-12T14:50:45.743Z,86.40
2023-02-12T14:53:26.903Z,86.50
2023-02-12T14:55:53.815Z,87.00
2023-02-12T14:58:22.550Z,86.50
2023-02-12T15:00:50.118Z,86.60
2023-02-12T15:03:39.022Z,86.60
2023-02-12T15:06:13.473Z,86.50
2023-02-12T15:09:02.148Z,87.00
2023-02-12T15:12:03.761Z,86.60
2023-02-12T15:14:31.914Z,86.60
2023-02-12T15:17:09.883Z,86.70
2023-02-12T15:19:57.344Z,86.90
2023-02-12T15:22:29.632Z,87.00
2023-02-12T15:25:25.819Z,87.00
2023-02-12T15:27:55.884Z,87.10
2023-02-12T15:30:26.642Z,87.10
2023-02-12T15:32:59.491Z,87.20
2023-02-12T15:35:28.126Z,87.30
2023-02-12T15:37:55.540Z,87.40
2023-02-12T15:40:22.569Z,87.60
2023-02-12T15:42:53.555Z,87.60
2023-02-12T15:45:22.868Z,87.70
2023-02-12T15:48:02.129Z,87.90
2023-02-12T15:50:29.685Z,88.10
2023-02-12T15:52:56.850Z,88.70
2023-02-12T15:55:25.758Z,88.20
2023-02-12T15:57:54.146Z,88.40
2023-02-12T16:00:43.901Z,88.40
2023-02-12T16:03:25.873Z,88.70
2023-02-12T16:05:53.128Z,89.30
2023-02-12T16:08:21.606Z,88.90
2023-02-12T16:10:49.420Z,88.90
2023-02-12T16:13:32.911Z,89.00
2023-02-12T16:16:11.959Z,89.10
2023-02-12T16:18:39.505Z,89.20
2023-02-12T16:21:06.946Z,89.20
2023-02-12T16:23:34.714Z,89.20
2023-02-12T16:26:01.542Z,89.20
2023-02-12T16:28:29.062Z,89.20
2023-02-12T16:31:09.209Z,89.30
2023-02-12T16:33:45.480Z,89.50
2023-02-12T16:36:28.387Z,89.50
2023-02-12T16:39:02.610Z,89.40
2023-02-12T16:41:33.508Z,89.90
2023-02-12T16:44:00.301Z,89.50
2023-02-12T16:46:49.627Z,89.40
2023-02-12T16:49:17.675Z,89.50
2023-02-12T16:51:44.730Z,89.40
2023-02-12T16:54:31.290Z,89.30
2023-02-12T16:56:59.694Z,89.30
2023-02-12T16:59:26.715Z,89.30
2023-02-12T17:01:57.402Z,89.30
2023-02-12T17:04:24.317Z,89.60
2023-02-12T17:06:51.124Z,89.90
2023-02-12T17:09:17.880Z,89.40
2023-02-12T17:11:46.125Z,89.40
2023-02-12T17:14:18.986Z,89.90
2023-02-12T17:16:45.960Z,89.90
2023-02-12T17:19:12.802Z,89.40
2023-02-12T17:21:41.980Z,89.50
2023-02-12T17:24:26.295Z,89.50
2023-02-12T17:26:53.578Z,89.70
2023-02-12T17:29:21.746Z,89.60
2023-02-12T17:31:49.107Z,89.60
2023-02-12T17:34:16.524Z,89.70
2023-02-12T17:36:43.271Z,89.70
2023-02-12T17:39:11.822Z,89.80
2023-02-12T17:41:38.699Z,89.90
2023-02-12T17:44:05.604Z,90.00
2023-02-12T17:46:32.590Z,90.00
2023-02-12T17:48:59.448Z,90.00
2023-02-12T17:51:26.264Z,90.00
2023-02-12T17:53:53.130Z,90.10
2023-02-12T17:56:21.295Z,90.00
2023-02-12T17:58:48.437Z,90.10
2023-02-12T18:01:19.613Z,90.10
2023-02-12T18:03:46.512Z,90.10
2023-02-12T18:06:16.306Z,90.10
2023-02-12T18:08:44.298Z,90.10
2023-02-12T18:11:11.503Z,90.10
2023-02-12T18:13:38.485Z,90.10
2023-02-12T18:16:09.095Z,90.10
2023-02-12T18:18:36.394Z,90.00
2023-02-12T18:21:07.719Z,90.00
2023-02-12T18:23:34.602Z,90.00
2023-02-12T18:26:04.420Z,90.00
2023-02-12T18:28:31.238Z,90.00
2023-02-12T18:30:58.978Z,89.90
2023-02-12T18:33:26.066Z,89.70
2023-02-12T18:36:06.957Z,89.50
2023-02-12T18:38:34.842Z,89.30
2023-02-12T18:41:06.446Z,89.20
2023-02-12T18:43:35.901Z,89.10
2023-02-12T18:46:10.374Z,89.00
2023-02-12T18:48:37.250Z,89.00
2023-02-12T18:51:04.927Z,89.00
2023-02-12T18:53:31.732Z,88.80
2023-02-12T18:55:58.646Z,88.80
2023-02-12T18:58:25.505Z,88.70
2023-02-12T19:00:52.358Z,88.70
2023-02-12T19:03:19.113Z,88.60
2023-02-12T19:05:45.946Z,88.50
2023-02-12T19:08:13.226Z,88.60
2023-02-12T19:10:40.559Z,88.50
2023-02-12T19:13:07.714Z,88.50
2023-02-12T19:15:34.702Z,88.40
2023-02-12T19:18:01.798Z,88.40
2023-02-12T19:20:28.580Z,88.40
2023-02-12T19:22:56.175Z,88.50
2023-02-12T19:25:22.935Z,88.40
2023-02-12T19:27:49.734Z,88.40
2023-02-12T19:30:16.636Z,88.50
2023-02-12T19:32:43.428Z,88.40
2023-02-12T19:35:10.239Z,89.10
2023-02-12T19:37:37.230Z,88.40
2023-02-12T19:40:04.109Z,88.40
2023-02-12T19:42:30.972Z,88.40
2023-02-12T19:44:57.847Z,88.40
2023-02-12T19:47:24.678Z,88.40
2023-02-12T19:49:51.454Z,88.40
2023-02-12T19:52:18.278Z,88.40
2023-02-12T19:54:45.385Z,88.40
2023-02-12T19:57:13.557Z,88.40
2023-02-12T19:59:41.137Z,88.40
2023-02-12T20:02:09.343Z,88.40
2023-02-12T20:04:36.889Z,88.40
2023-02-12T20:07:03.956Z,88.40
2023-02-12T20:09:30.828Z,88.40
2023-02-12T20:11:58.283Z,88.40
2023-02-12T20:14:25.291Z,88.50
2023-02-12T20:16:54.502Z,88.40
2023-02-12T20:19:28.867Z,88.40
2023-02-12T20:21:57.413Z,88.40
2023-02-12T20:24:28.551Z,88.40
2023-02-12T20:26:55.601Z,88.30
2023-02-12T20:29:22.946Z,88.30
2023-02-12T20:31:50.015Z,88.40
2023-02-12T20:34:18.019Z,88.40
2023-02-12T20:36:48.146Z,88.40
2023-02-12T20:39:17.002Z,88.40
2023-02-12T20:41:44.385Z,88.30
2023-02-12T20:44:13.908Z,88.60
2023-02-12T20:46:42.206Z,88.30
2023-02-12T20:49:10.128Z,88.20
2023-02-12T20:51:36.904Z,88.20
2023-02-12T20:54:03.862Z,88.10
2023-02-12T20:56:32.406Z,88.10
2023-02-12T20:58:59.828Z,88.50
2023-02-12T21:01:32.894Z,87.90
2023-02-12T21:04:02.758Z,87.80
2023-02-12T21:06:29.620Z,87.80
2023-02-12T21:08:56.777Z,87.70
2023-02-12T21:11:24.551Z,87.60
2023-02-12T21:14:02.184Z,87.60
2023-02-12T21:16:30.890Z,87.60
2023-02-12T21:18:57.890Z,87.50
2023-02-12T21:21:35.891Z,87.50
2023-02-12T21:24:06.285Z,87.50
2023-02-12T21:26:33.465Z,87.40
2023-02-12T21:29:01.462Z,87.30
2023-02-12T21:31:32.855Z,87.30
2023-02-12T21:34:00.452Z,87.30
2023-02-12T21:36:38.077Z,87.30
2023-02-12T21:39:06.553Z,87.30
2023-02-12T21:41:35.655Z,87.50
2023-02-12T21:44:04.677Z,87.30
2023-02-12T21:46:31.495Z,87.30
2023-02-12T21:48:58.411Z,87.20
2023-02-12T21:51:27.462Z,87.20
2023-02-12T21:53:55.876Z,87.20
2023-02-12T21:56:22.994Z,87.20
2023-02-12T21:58:51.317Z,87.10
2023-02-12T22:01:20.328Z,87.20
2023-02-12T22:03:47.183Z,87.10
2023-02-12T22:06:14.644Z,87.60
2023-02-12T22:08:41.363Z,87.00
2023-02-12T22:11:10.829Z,87.00
2023-02-12T22:13:37.815Z,87.00
2023-02-12T22:16:12.180Z,87.10
2023-02-12T22:18:39.366Z,87.00
2023-02-12T22:21:06.946Z,87.00
2023-02-12T22:23:34.285Z,87.00
2023-02-12T22:26:12.257Z,87.00
2023-02-12T22:29:09.240Z,86.90
2023-02-12T22:31:37.275Z,87.50
2023-02-12T22:34:06.397Z,86.90
2023-02-12T22:36:34.990Z,86.90
2023-02-12T22:39:02.056Z,86.90
2023-02-12T22:41:29.111Z,86.90
2023-02-12T22:43:58.346Z,86.90
2023-02-12T22:46:25.205Z,87.00
2023-02-12T22:48:51.929Z,87.00
2023-02-12T22:51:19.529Z,87.00
2023-02-12T22:53:46.470Z,87.10
2023-02-12T22:56:13.369Z,87.00
2023-02-12T22:58:40.313Z,87.10
2023-02-12T23:01:15.521Z,87.10
2023-02-12T23:03:42.488Z,87.10
2023-02-12T23:06:11.745Z,87.10
2023-02-12T23:08:38.585Z,87.10
2023-02-12T23:11:07.846Z,87.10
2023-02-12T23:13:35.783Z,87.10
2023-02-12T23:16:02.776Z,87.10
2023-02-12T23:18:29.584Z,87.20
2023-02-12T23:20:56.665Z,87.20
2023-02-12T23:23:23.743Z,87.80
2023-02-12T23:25:50.673Z,87.40
2023-02-12T23:28:17.554Z,87.30
2023-02-12T23:30:44.531Z,87.40
2023-02-12T23:33:11.479Z,87.40
2023-02-12T23:35:38.275Z,87.40
2023-02-12T23:38:05.252Z,87.30
2023-02-12T23:40:32.945Z,87.30
2023-02-12T23:43:00.114Z,87.90
2023-02-12T23:45:27.577Z,87.50
2023-02-12T23:47:54.509Z,88.00
2023-02-12T23:50:21.325Z,87.50
2023-02-12T23:52:48.110Z,88.00
2023-02-12T23:55:15.057Z,87.50
2023-02-12T23:57:41.937Z,87.40
